Content
SEND FEEDBACK

Daily
Averages
Monthly
Summary
Canada

CORNER BROOK, NEWFOUNDLAND


Home > North America > Canada > Newfoundland
Elevation: 16 feet     Latitude: 48 57N     Longitude: 057 57W

WEATHER
 
SELECT A DAY
Number of Records: 180,836;   Date Range: 1/1/95 - 7/28/14
 
SHARE

PRINT THIS DATA

[ ← Previous Day ]
WEATHER ALMANAC - FEBRUARY 4, 2013
[ Next Day → ]
[ °C ]   °F
Weather ElementAverageHighLow
Temperature31.7 °F42.8 °F (4:30 pm)21.2 °F (1:30 am)
Dewpoint29.1 °F41 °F (4:30 pm)17.6 °F (11:30 pm)
Humidity89.9 %100 % (10:30 am)74 % (8:30 pm)
Barometer29.00 in29.91 in (1:30 am)28.26 in (5:27 pm)
Wind Speed19.2 mph46 mph (7:30 pm)
Wind Gust62.1 mph (7:30 pm)
Weather ElementAverage
Visibility3.9 mi
Wind DirectionE (95.6 °)

Weather ElementTotal
Precipitation---
Heating Degree Days33 (Base 65)
Averaged from 34 records on February 4, 2013
WEATHER CONDITIONS BREAKOUT
WIND DIRECTION BREAKOUT
WEATHER BY HOUR - FEBRUARY 4, 2013
[ °C ]   °F
Local TimeTemperatureDewpointHumidityBarometerVisibilityWind DirectionWind SpeedGust SpeedPrecipitationEventsConditions
1:30 AM21.2 °F19.4 °F93 %29.91 in0.8 miNE (40°)17.3 mph24.2 mphSnowLight Snow
2:30 AM23.0 °F21.0 °F90 %29.85 in1.0 miNNE (30°)13.8 mphSnowLight Snow
2:30 AM23.0 °F21.2 °F93 %29.85 in0.6 miNNE (30°)16.1 mph24.2 mphSnowLight Snow
3:30 AM24.8 °F23.0 °F93 %29.78 in0.8 miNE (40°)15.0 mphSnowLight Snow
4:30 AM24.8 °F23.0 °F93 %29.72 in1.0 miNE (50°)10.4 mph18.4 mphSnowLight Snow
5:11 AM26.6 °F24.8 °F93 %29.67 in3.0 miNE (40°)13.8 mphSnowLight Snow
5:30 AM26.6 °F24.8 °F93 %29.64 in2.0 miNE (40°)11.5 mph20.7 mphSnowLight Snow
7:30 AM35.6 °F32.0 °F87 %29.50 in12.0 miEast (80°)17.3 mph27.6 mphRainLight Rain
7:56 AM35.6 °F32.0 °F87 %29.48 in4.0 miNE (50°)16.1 mph21.9 mphRainLight Freezing Rain
8:23 AM33.8 °F32.0 °F93 %29.44 in4.0 miNE (50°)17.3 mphRainLight Rain
8:30 AM34.0 °F32.0 °F90 %29.43 in4.0 miNE (50°)16.1 mphRainLight Rain
8:30 AM33.8 °F32.0 °F93 %29.43 in4.0 miNE (50°)17.3 mphRainLight Rain
9:30 AM33.8 °F32.0 °F93 %29.30 in4.0 miNNE (30°)15.0 mph20.7 mphRainLight Rain
10:30 AM32.0 °F32.0 °F100 %29.17 in3.0 miNNE (30°)17.3 mph23.0 mphRain-SnowLight Rain
11:30 AM33.8 °F32.0 °F93 %29.00 in4.0 miNE (40°)17.3 mph26.5 mphRain-SnowLight Rain
12:15 PM33.8 °F32.0 °F93 %28.90 in4.0 miNNE (30°)15.0 mph21.9 mphRainLight Rain
12:30 PM33.8 °F33.8 °F100 %28.86 in4.0 miNNE (30°)13.8 mphRainLight Rain
1:30 PM37.4 °F35.6 °F93 %28.69 in6.0 miNE (50°)13.8 mph24.2 mphRainLight Rain
2:30 PM37.0 °F36.0 °F93 %28.54 in4.0 miNE (40°)15.0 mphRainLight Rain
2:30 PM37.4 °F35.6 °F93 %28.54 in4.0 miNNE (30°)13.8 mph23.0 mphRainLight Rain
3:30 PM39.2 °F37.4 °F93 %28.41 in9.0 miNNE (30°)11.5 mph28.8 mphRainLight Rain
4:11 PM41.0 °F39.2 °F93 %28.33 in6.0 miEast (80°)11.5 mph19.6 mphRainLight Rain
4:30 PM42.8 °F41.0 °F93 %28.30 in6.0 miEast (100°)15.0 mph24.2 mphRainLight Rain
5:27 PM37.4 °F33.8 °F87 %28.26 in3.0 miESE (120°)9.2 mphRainLight Rain
5:30 PM37.4 °F33.8 °F87 %28.26 in3.0 miESE (120°)9.2 mphRainLight Rain
6:30 PM37.4 °F33.8 °F87 %28.30 in4.0 miSSW (200°)17.3 mph27.6 mphRainLight Rain
6:56 PM37.4 °F32.0 °F81 %28.37 in6.0 miSSW (210°)29.9 mph42.6 mphRainLight Rain
7:30 PM32.0 °F28.4 °F87 %28.47 in6.0 miSSW (210°)46.0 mph62.1 mphRainLight Rain
8:30 PM28.0 °F23.0 °F74 %28.65 in3.0 miSW (220°)35.7 mphSnowLight Snow
8:30 PM26.6 °F23.0 °F86 %28.65 in3.0 miSW (220°)35.7 mph54.1 mphSnowLight Snow
9:30 PM24.8 °F19.4 °F80 %28.75 in5.0 miSW (230°)29.9 mph48.3 mphSnowLight Snow
10:13 PM24.8 °F21.2 °F86 %28.80 in1.0 miSW (230°)31.1 mph43.7 mphSnowLight Snow
10:30 PM23.0 °F19.4 °F86 %28.82 in1.0 miSW (230°)31.1 mph47.2 mphSnowLight Snow
11:30 PM23.0 °F17.6 °F80 %28.87 in6.0 miSW (220°)38.0 mph56.4 mphSnowLight Snow
Hourly data recorded from CYDF, located miles away from Corner Brook, Newfoundland







STORIES FROM OUR PARTNERS